sensor_id;sensor_type;location;lat;lon;timestamp;temperature;humidity
24049;DHT22;12250;50.956;4.746;2022-10-31T00:01:36;13.50;99.90
24049;DHT22;12250;50.956;4.746;2022-10-31T00:04:02;13.50;99.90
24049;DHT22;12250;50.956;4.746;2022-10-31T00:06:29;13.50;99.90
24049;DHT22;12250;50.956;4.746;2022-10-31T00:08:57;13.50;99.90
24049;DHT22;12250;50.956;4.746;2022-10-31T00:11:23;13.50;99.90
24049;DHT22;12250;50.956;4.746;2022-10-31T00:13:49;13.50;99.90
24049;DHT22;12250;50.956;4.746;2022-10-31T00:16:21;13.50;99.90
24049;DHT22;12250;50.956;4.746;2022-10-31T00:18:49;13.40;99.90
24049;DHT22;12250;50.956;4.746;2022-10-31T00:21:15;13.40;99.90
24049;DHT22;12250;50.956;4.746;2022-10-31T00:23:40;13.40;99.90
24049;DHT22;12250;50.956;4.746;2022-10-31T00:26:06;13.40;99.90
24049;DHT22;12250;50.956;4.746;2022-10-31T00:28:32;13.30;99.90
24049;DHT22;12250;50.956;4.746;2022-10-31T00:31:03;13.30;99.90
24049;DHT22;12250;50.956;4.746;2022-10-31T00:33:29;13.20;99.90
24049;DHT22;12250;50.956;4.746;2022-10-31T00:35:55;13.20;99.90
24049;DHT22;12250;50.956;4.746;2022-10-31T00:38:21;13.20;99.90
24049;DHT22;12250;50.956;4.746;2022-10-31T00:40:47;13.10;99.90
24049;DHT22;12250;50.956;4.746;2022-10-31T00:43:13;13.00;99.90
24049;DHT22;12250;50.956;4.746;2022-10-31T00:45:38;12.90;99.90
24049;DHT22;12250;50.956;4.746;2022-10-31T00:48:04;12.90;99.90
24049;DHT22;12250;50.956;4.746;2022-10-31T00:50:30;12.80;99.90
24049;DHT22;12250;50.956;4.746;2022-10-31T00:52:56;12.80;99.90
24049;DHT22;12250;50.956;4.746;2022-10-31T00:55:23;12.70;99.90
24049;DHT22;12250;50.956;4.746;2022-10-31T00:57:49;12.70;99.90
24049;DHT22;12250;50.956;4.746;2022-10-31T01:00:15;12.60;99.90
24049;DHT22;12250;50.956;4.746;2022-10-31T01:02:41;12.50;99.90
24049;DHT22;12250;50.956;4.746;2022-10-31T01:05:06;12.50;99.90
24049;DHT22;12250;50.956;4.746;2022-10-31T01:07:36;12.50;99.90
24049;DHT22;12250;50.956;4.746;2022-10-31T01:10:02;12.40;99.90
24049;DHT22;12250;50.956;4.746;2022-10-31T01:12:28;12.40;99.90
24049;DHT22;12250;50.956;4.746;2022-10-31T01:14:54;12.30;99.90
24049;DHT22;12250;50.956;4.746;2022-10-31T01:17:19;12.20;99.90
24049;DHT22;12250;50.956;4.746;2022-10-31T01:19:45;12.20;99.90
24049;DHT22;12250;50.956;4.746;2022-10-31T01:22:11;12.10;99.90
24049;DHT22;12250;50.956;4.746;2022-10-31T01:24:36;12.10;99.90
24049;DHT22;12250;50.956;4.746;2022-10-31T01:27:02;12.00;99.90
24049;DHT22;12250;50.956;4.746;2022-10-31T01:29:28;12.00;99.90
24049;DHT22;12250;50.956;4.746;2022-10-31T01:31:54;11.90;99.90
24049;DHT22;12250;50.956;4.746;2022-10-31T01:34:20;11.90;99.90
24049;DHT22;12250;50.956;4.746;2022-10-31T01:36:46;11.90;99.90
24049;DHT22;12250;50.956;4.746;2022-10-31T01:39:16;11.90;99.90
24049;DHT22;12250;50.956;4.746;2022-10-31T01:41:45;11.80;99.90
24049;DHT22;12250;50.956;4.746;2022-10-31T01:49:24;11.70;99.90
24049;DHT22;12250;50.956;4.746;2022-10-31T01:51:54;11.70;99.90
24049;DHT22;12250;50.956;4.746;2022-10-31T01:54:25;11.70;99.90
24049;DHT22;12250;50.956;4.746;2022-10-31T01:56:53;11.70;99.90
24049;DHT22;12250;50.956;4.746;2022-10-31T01:59:22;11.70;99.90
24049;DHT22;12250;50.956;4.746;2022-10-31T02:01:52;11.70;99.90
24049;DHT22;12250;50.956;4.746;2022-10-31T02:04:19;11.70;99.90
24049;DHT22;12250;50.956;4.746;2022-10-31T02:06:49;11.60;99.90
24049;DHT22;12250;50.956;4.746;2022-10-31T02:09:17;11.60;99.90
24049;DHT22;12250;50.956;4.746;2022-10-31T02:11:51;11.60;99.90
24049;DHT22;12250;50.956;4.746;2022-10-31T02:14:17;11.60;99.90
24049;DHT22;12250;50.956;4.746;2022-10-31T02:16:43;11.60;99.90
24049;DHT22;12250;50.956;4.746;2022-10-31T02:19:13;11.50;99.90
24049;DHT22;12250;50.956;4.746;2022-10-31T02:22:06;11.40;99.90
24049;DHT22;12250;50.956;4.746;2022-10-31T02:24:46;11.30;99.90
24049;DHT22;12250;50.956;4.746;2022-10-31T02:27:40;11.30;99.90
24049;DHT22;12250;50.956;4.746;2022-10-31T02:33:30;11.10;99.90
24049;DHT22;12250;50.956;4.746;2022-10-31T02:44:20;11.00;99.90
24049;DHT22;12250;50.956;4.746;2022-10-31T02:47:05;11.00;99.90
24049;DHT22;12250;50.956;4.746;2022-10-31T02:49:55;11.00;99.90
24049;DHT22;12250;50.956;4.746;2022-10-31T02:52:30;11.00;99.90
24049;DHT22;12250;50.956;4.746;2022-10-31T02:54:57;11.00;99.90
24049;DHT22;12250;50.956;4.746;2022-10-31T02:57:29;11.00;99.90
24049;DHT22;12250;50.956;4.746;2022-10-31T03:00:06;11.00;99.90
24049;DHT22;12250;50.956;4.746;2022-10-31T03:02:44;11.00;99.90
24049;DHT22;12250;50.956;4.746;2022-10-31T03:07:51;11.00;99.90
24049;DHT22;12250;50.956;4.746;2022-10-31T03:10:35;11.00;99.90
24049;DHT22;12250;50.956;4.746;2022-10-31T03:13:13;11.00;99.90
24049;DHT22;12250;50.956;4.746;2022-10-31T03:15:44;11.00;99.90
24049;DHT22;12250;50.956;4.746;2022-10-31T03:20:53;11.00;99.90
24049;DHT22;12250;50.956;4.746;2022-10-31T03:23:22;11.00;99.90
24049;DHT22;12250;50.956;4.746;2022-10-31T03:25:51;11.00;99.90
24049;DHT22;12250;50.956;4.746;2022-10-31T03:28:23;11.00;99.90
24049;DHT22;12250;50.956;4.746;2022-10-31T03:30:51;10.90;99.90
24049;DHT22;12250;50.956;4.746;2022-10-31T03:33:21;10.90;99.90
24049;DHT22;12250;50.956;4.746;2022-10-31T03:35:51;10.80;99.90
24049;DHT22;12250;50.956;4.746;2022-10-31T03:38:18;10.80;99.90
24049;DHT22;12250;50.956;4.746;2022-10-31T03:40:46;10.80;99.90
24049;DHT22;12250;50.956;4.746;2022-10-31T03:43:20;10.80;99.90
24049;DHT22;12250;50.956;4.746;2022-10-31T03:45:47;10.80;99.90
24049;DHT22;12250;50.956;4.746;2022-10-31T03:48:14;10.80;99.90
24049;DHT22;12250;50.956;4.746;2022-10-31T03:50:52;10.80;99.90
24049;DHT22;12250;50.956;4.746;2022-10-31T03:53:57;10.80;99.90
24049;DHT22;12250;50.956;4.746;2022-10-31T03:59:05;10.80;99.90
24049;DHT22;12250;50.956;4.746;2022-10-31T04:01:32;10.80;99.90
24049;DHT22;12250;50.956;4.746;2022-10-31T04:04:00;10.80;99.90
24049;DHT22;12250;50.956;4.746;2022-10-31T04:06:26;10.80;99.90
24049;DHT22;12250;50.956;4.746;2022-10-31T04:08:57;10.80;99.90
24049;DHT22;12250;50.956;4.746;2022-10-31T04:11:28;10.90;99.90
24049;DHT22;12250;50.956;4.746;2022-10-31T04:13:55;10.80;99.90
24049;DHT22;12250;50.956;4.746;2022-10-31T04:16:23;10.80;99.90
24049;DHT22;12250;50.956;4.746;2022-10-31T04:18:49;10.80;99.90
24049;DHT22;12250;50.956;4.746;2022-10-31T04:21:15;10.90;99.90
24049;DHT22;12250;50.956;4.746;2022-10-31T04:23:42;10.80;99.90
24049;DHT22;12250;50.956;4.746;2022-10-31T04:26:10;10.80;99.90
24049;DHT22;12250;50.956;4.746;2022-10-31T04:28:36;10.70;99.90
24049;DHT22;12250;50.956;4.746;2022-10-31T04:31:02;10.70;99.90
24049;DHT22;12250;50.956;4.746;2022-10-31T04:33:27;10.60;99.90
24049;DHT22;12250;50.956;4.746;2022-10-31T04:35:53;10.60;99.90
24049;DHT22;12250;50.956;4.746;2022-10-31T04:38:19;10.60;99.90
24049;DHT22;12250;50.956;4.746;2022-10-31T04:40:45;10.60;99.90
24049;DHT22;12250;50.956;4.746;2022-10-31T04:43:11;10.60;99.90
24049;DHT22;12250;50.956;4.746;2022-10-31T04:45:37;10.70;99.90
24049;DHT22;12250;50.956;4.746;2022-10-31T04:48:03;10.70;99.90
24049;DHT22;12250;50.956;4.746;2022-10-31T04:50:29;10.70;99.90
24049;DHT22;12250;50.956;4.746;2022-10-31T04:52:54;10.70;99.90
24049;DHT22;12250;50.956;4.746;2022-10-31T04:55:20;10.80;99.90
24049;DHT22;12250;50.956;4.746;2022-10-31T04:57:49;10.80;99.90
24049;DHT22;12250;50.956;4.746;2022-10-31T05:00:17;10.90;99.90
24049;DHT22;12250;50.956;4.746;2022-10-31T05:02:48;10.90;99.90
24049;DHT22;12250;50.956;4.746;2022-10-31T05:05:15;10.90;99.90
24049;DHT22;12250;50.956;4.746;2022-10-31T05:07:43;11.00;99.90
24049;DHT22;12250;50.956;4.746;2022-10-31T05:10:11;11.00;99.90
24049;DHT22;12250;50.956;4.746;2022-10-31T05:12:38;11.00;99.90
24049;DHT22;12250;50.956;4.746;2022-10-31T05:15:10;11.00;99.90
24049;DHT22;12250;50.956;4.746;2022-10-31T05:17:36;11.10;99.90
24049;DHT22;12250;50.956;4.746;2022-10-31T05:20:01;11.00;99.90
24049;DHT22;12250;50.956;4.746;2022-10-31T05:22:27;11.10;99.90
24049;DHT22;12250;50.956;4.746;2022-10-31T05:24:52;11.00;99.90
24049;DHT22;12250;50.956;4.746;2022-10-31T05:27:18;11.00;99.90
24049;DHT22;12250;50.956;4.746;2022-10-31T05:29:43;11.00;99.90
24049;DHT22;12250;50.956;4.746;2022-10-31T05:32:09;11.00;99.90
24049;DHT22;12250;50.956;4.746;2022-10-31T05:34:35;11.10;99.90
24049;DHT22;12250;50.956;4.746;2022-10-31T05:37:00;11.10;99.90
24049;DHT22;12250;50.956;4.746;2022-10-31T05:39:26;11.10;99.90
24049;DHT22;12250;50.956;4.746;2022-10-31T05:41:52;11.10;99.90
24049;DHT22;12250;50.956;4.746;2022-10-31T05:44:17;11.10;99.90
24049;DHT22;12250;50.956;4.746;2022-10-31T05:46:43;11.20;99.90
24049;DHT22;12250;50.956;4.746;2022-10-31T05:49:08;11.20;99.90
24049;DHT22;12250;50.956;4.746;2022-10-31T05:51:34;11.30;99.90
24049;DHT22;12250;50.956;4.746;2022-10-31T05:54:00;11.30;99.90
24049;DHT22;12250;50.956;4.746;2022-10-31T05:56:25;11.30;99.90
24049;DHT22;12250;50.956;4.746;2022-10-31T05:58:51;11.30;99.90
24049;DHT22;12250;50.956;4.746;2022-10-31T06:01:17;11.30;99.90
24049;DHT22;12250;50.956;4.746;2022-10-31T06:03:42;11.40;99.90
24049;DHT22;12250;50.956;4.746;2022-10-31T06:06:08;11.30;99.90
24049;DHT22;12250;50.956;4.746;2022-10-31T06:08:33;11.30;99.90
24049;DHT22;12250;50.956;4.746;2022-10-31T06:10:59;11.30;99.90
24049;DHT22;12250;50.956;4.746;2022-10-31T06:13:25;11.30;99.90
24049;DHT22;12250;50.956;4.746;2022-10-31T06:15:50;11.30;99.90
24049;DHT22;12250;50.956;4.746;2022-10-31T06:18:16;11.40;99.90
24049;DHT22;12250;50.956;4.746;2022-10-31T06:20:41;11.40;99.90
24049;DHT22;12250;50.956;4.746;2022-10-31T06:23:07;11.40;99.90
24049;DHT22;12250;50.956;4.746;2022-10-31T06:25:33;11.40;99.90
24049;DHT22;12250;50.956;4.746;2022-10-31T06:27:58;11.40;99.90
24049;DHT22;12250;50.956;4.746;2022-10-31T06:30:24;11.50;99.90
24049;DHT22;12250;50.956;4.746;2022-10-31T06:32:50;11.50;99.90
24049;DHT22;12250;50.956;4.746;2022-10-31T06:35:16;11.60;99.90
24049;DHT22;12250;50.956;4.746;2022-10-31T06:37:42;11.70;99.90
24049;DHT22;12250;50.956;4.746;2022-10-31T06:40:08;11.70;99.90
24049;DHT22;12250;50.956;4.746;2022-10-31T06:42:34;11.80;99.90
24049;DHT22;12250;50.956;4.746;2022-10-31T06:44:59;11.80;99.90
24049;DHT22;12250;50.956;4.746;2022-10-31T06:47:25;11.80;99.90
24049;DHT22;12250;50.956;4.746;2022-10-31T06:49:51;11.90;99.90
24049;DHT22;12250;50.956;4.746;2022-10-31T06:52:16;11.90;99.90
24049;DHT22;12250;50.956;4.746;2022-10-31T06:54:42;11.90;99.90
24049;DHT22;12250;50.956;4.746;2022-10-31T06:57:07;11.90;99.90
24049;DHT22;12250;50.956;4.746;2022-10-31T06:59:33;11.90;99.90
24049;DHT22;12250;50.956;4.746;2022-10-31T07:01:59;11.90;99.90
24049;DHT22;12250;50.956;4.746;2022-10-31T07:04:24;11.90;99.90
24049;DHT22;12250;50.956;4.746;2022-10-31T07:06:51;12.00;99.90
24049;DHT22;12250;50.956;4.746;2022-10-31T07:09:18;12.10;99.90
24049;DHT22;12250;50.956;4.746;2022-10-31T07:11:43;12.20;99.90
24049;DHT22;12250;50.956;4.746;2022-10-31T07:14:09;12.30;99.90
24049;DHT22;12250;50.956;4.746;2022-10-31T07:16:35;12.40;99.90
24049;DHT22;12250;50.956;4.746;2022-10-31T07:19:00;12.40;99.90
24049;DHT22;12250;50.956;4.746;2022-10-31T07:21:26;12.50;99.90
24049;DHT22;12250;50.956;4.746;2022-10-31T07:23:52;12.60;99.90
24049;DHT22;12250;50.956;4.746;2022-10-31T07:26:17;12.70;99.90
24049;DHT22;12250;50.956;4.746;2022-10-31T07:28:43;12.80;99.90
24049;DHT22;12250;50.956;4.746;2022-10-31T07:31:08;12.80;99.90
24049;DHT22;12250;50.956;4.746;2022-10-31T07:33:34;12.90;99.90
24049;DHT22;12250;50.956;4.746;2022-10-31T07:36:00;12.90;99.90
24049;DHT22;12250;50.956;4.746;2022-10-31T07:38:25;13.00;99.90
24049;DHT22;12250;50.956;4.746;2022-10-31T07:40:52;13.10;99.90
24049;DHT22;12250;50.956;4.746;2022-10-31T07:43:21;13.20;99.90
24049;DHT22;12250;50.956;4.746;2022-10-31T07:45:51;13.20;99.90
24049;DHT22;12250;50.956;4.746;2022-10-31T07:48:17;13.30;99.90
24049;DHT22;12250;50.956;4.746;2022-10-31T07:50:43;13.30;99.90
24049;DHT22;12250;50.956;4.746;2022-10-31T07:53:10;13.50;99.90
24049;DHT22;12250;50.956;4.746;2022-10-31T07:55:36;13.60;99.90
24049;DHT22;12250;50.956;4.746;2022-10-31T07:58:04;13.70;99.90
24049;DHT22;12250;50.956;4.746;2022-10-31T08:00:31;13.70;99.90
24049;DHT22;12250;50.956;4.746;2022-10-31T08:03:05;13.80;99.90
24049;DHT22;12250;50.956;4.746;2022-10-31T08:05:32;13.90;99.90
24049;DHT22;12250;50.956;4.746;2022-10-31T08:07:58;14.00;99.90
24049;DHT22;12250;50.956;4.746;2022-10-31T08:10:24;14.20;99.90
24049;DHT22;12250;50.956;4.746;2022-10-31T08:13:00;14.30;99.90
24049;DHT22;12250;50.956;4.746;2022-10-31T08:15:27;14.50;99.90
24049;DHT22;12250;50.956;4.746;2022-10-31T08:17:53;14.70;99.90
24049;DHT22;12250;50.956;4.746;2022-10-31T08:20:20;14.90;99.90
24049;DHT22;12250;50.956;4.746;2022-10-31T08:22:56;15.10;99.90
24049;DHT22;12250;50.956;4.746;2022-10-31T08:25:23;15.20;99.90
24049;DHT22;12250;50.956;4.746;2022-10-31T08:27:53;15.20;99.90
24049;DHT22;12250;50.956;4.746;2022-10-31T08:30:20;15.20;99.90
24049;DHT22;12250;50.956;4.746;2022-10-31T08:32:46;15.10;99.90
24049;DHT22;12250;50.956;4.746;2022-10-31T08:35:12;15.10;99.90
24049;DHT22;12250;50.956;4.746;2022-10-31T08:37:38;15.20;99.90
24049;DHT22;12250;50.956;4.746;2022-10-31T08:40:04;15.30;99.90
24049;DHT22;12250;50.956;4.746;2022-10-31T08:42:32;15.40;99.90
24049;DHT22;12250;50.956;4.746;2022-10-31T08:44:57;15.50;99.90
24049;DHT22;12250;50.956;4.746;2022-10-31T08:47:23;15.50;99.90
24049;DHT22;12250;50.956;4.746;2022-10-31T08:49:49;15.50;99.90
24049;DHT22;12250;50.956;4.746;2022-10-31T08:52:14;15.40;99.90
24049;DHT22;12250;50.956;4.746;2022-10-31T08:54:41;15.50;99.90
24049;DHT22;12250;50.956;4.746;2022-10-31T08:57:06;15.50;99.90
24049;DHT22;12250;50.956;4.746;2022-10-31T08:59:32;15.60;99.90
24049;DHT22;12250;50.956;4.746;2022-10-31T09:01:58;15.60;99.90
24049;DHT22;12250;50.956;4.746;2022-10-31T09:04:23;15.70;99.90
24049;DHT22;12250;50.956;4.746;2022-10-31T09:06:49;15.70;99.90
24049;DHT22;12250;50.956;4.746;2022-10-31T09:09:14;15.80;99.90
24049;DHT22;12250;50.956;4.746;2022-10-31T09:11:40;15.90;99.90
24049;DHT22;12250;50.956;4.746;2022-10-31T09:14:06;15.90;99.90
24049;DHT22;12250;50.956;4.746;2022-10-31T09:16:31;15.70;99.90
24049;DHT22;12250;50.956;4.746;2022-10-31T09:18:57;15.70;99.90
24049;DHT22;12250;50.956;4.746;2022-10-31T09:21:22;15.70;99.90
24049;DHT22;12250;50.956;4.746;2022-10-31T09:23:48;15.80;99.90
24049;DHT22;12250;50.956;4.746;2022-10-31T09:26:14;15.80;99.90
24049;DHT22;12250;50.956;4.746;2022-10-31T09:28:39;15.90;99.90
24049;DHT22;12250;50.956;4.746;2022-10-31T09:31:05;16.10;99.90
24049;DHT22;12250;50.956;4.746;2022-10-31T09:33:31;16.30;99.90
24049;DHT22;12250;50.956;4.746;2022-10-31T09:35:58;16.40;99.90
24049;DHT22;12250;50.956;4.746;2022-10-31T09:38:24;16.50;99.90
24049;DHT22;12250;50.956;4.746;2022-10-31T09:41:14;16.60;99.90
24049;DHT22;12250;50.956;4.746;2022-10-31T09:44:16;16.80;99.90
24049;DHT22;12250;50.956;4.746;2022-10-31T09:54:38;16.90;99.90
24049;DHT22;12250;50.956;4.746;2022-10-31T09:57:12;16.80;99.90
24049;DHT22;12250;50.956;4.746;2022-10-31T09:59:40;16.90;99.90
24049;DHT22;12250;50.956;4.746;2022-10-31T10:02:32;16.90;99.90
24049;DHT22;12250;50.956;4.746;2022-10-31T10:05:04;17.00;99.90
24049;DHT22;12250;50.956;4.746;2022-10-31T10:09:56;17.10;99.90
24049;DHT22;12250;50.956;4.746;2022-10-31T10:12:33;17.30;99.90
24049;DHT22;12250;50.956;4.746;2022-10-31T10:21:06;18.00;99.90
24049;DHT22;12250;50.956;4.746;2022-10-31T10:26:21;17.70;99.90
24049;DHT22;12250;50.956;4.746;2022-10-31T10:28:56;17.50;99.90
24049;DHT22;12250;50.956;4.746;2022-10-31T10:31:41;17.50;99.90
24049;DHT22;12250;50.956;4.746;2022-10-31T10:34:39;17.40;99.90
24049;DHT22;12250;50.956;4.746;2022-10-31T10:37:31;17.40;99.90
24049;DHT22;12250;50.956;4.746;2022-10-31T10:40:25;17.50;99.90
24049;DHT22;12250;50.956;4.746;2022-10-31T10:48:59;18.00;99.90
24049;DHT22;12250;50.956;4.746;2022-10-31T10:59:27;19.10;99.90
24049;DHT22;12250;50.956;4.746;2022-10-31T11:01:54;19.40;99.90
24049;DHT22;12250;50.956;4.746;2022-10-31T11:04:33;19.70;99.90
24049;DHT22;12250;50.956;4.746;2022-10-31T11:07:07;20.00;99.90
24049;DHT22;12250;50.956;4.746;2022-10-31T11:09:34;20.30;99.90
24049;DHT22;12250;50.956;4.746;2022-10-31T11:12:18;20.50;99.90
24049;DHT22;12250;50.956;4.746;2022-10-31T11:14:47;20.50;99.90
24049;DHT22;12250;50.956;4.746;2022-10-31T11:17:36;20.60;99.90
24049;DHT22;12250;50.956;4.746;2022-10-31T11:22:36;20.50;99.90
24049;DHT22;12250;50.956;4.746;2022-10-31T11:25:21;20.70;99.90
24049;DHT22;12250;50.956;4.746;2022-10-31T11:27:58;20.70;99.90
24049;DHT22;12250;50.956;4.746;2022-10-31T11:30:24;20.80;99.90
24049;DHT22;12250;50.956;4.746;2022-10-31T11:32:51;20.80;99.90
24049;DHT22;12250;50.956;4.746;2022-10-31T11:35:18;20.90;99.90
24049;DHT22;12250;50.956;4.746;2022-10-31T11:37:46;20.90;99.90
24049;DHT22;12250;50.956;4.746;2022-10-31T11:40:18;20.90;99.90
24049;DHT22;12250;50.956;4.746;2022-10-31T11:42:45;20.80;99.90
24049;DHT22;12250;50.956;4.746;2022-10-31T11:45:31;20.70;99.90
24049;DHT22;12250;50.956;4.746;2022-10-31T11:47:58;20.60;99.90
24049;DHT22;12250;50.956;4.746;2022-10-31T11:50:40;20.60;99.90
24049;DHT22;12250;50.956;4.746;2022-10-31T11:53:16;20.70;99.90
24049;DHT22;12250;50.956;4.746;2022-10-31T11:55:42;20.80;99.90
24049;DHT22;12250;50.956;4.746;2022-10-31T11:58:22;20.80;99.90
24049;DHT22;12250;50.956;4.746;2022-10-31T12:00:51;20.80;99.90
24049;DHT22;12250;50.956;4.746;2022-10-31T12:08:35;20.70;99.90
24049;DHT22;12250;50.956;4.746;2022-10-31T12:11:05;20.70;99.90
24049;DHT22;12250;50.956;4.746;2022-10-31T12:13:37;20.60;99.90
24049;DHT22;12250;50.956;4.746;2022-10-31T12:29:29;20.50;99.90
24049;DHT22;12250;50.956;4.746;2022-10-31T12:35:32;20.80;99.90
24049;DHT22;12250;50.956;4.746;2022-10-31T12:49:27;20.30;99.90
24049;DHT22;12250;50.956;4.746;2022-10-31T12:55:15;20.00;99.90
24049;DHT22;12250;50.956;4.746;2022-10-31T12:57:48;19.90;99.90
24049;DHT22;12250;50.956;4.746;2022-10-31T13:00:18;19.90;99.90
24049;DHT22;12250;50.956;4.746;2022-10-31T13:03:19;20.00;99.90
24049;DHT22;12250;50.956;4.746;2022-10-31T13:05:54;20.00;99.90
24049;DHT22;12250;50.956;4.746;2022-10-31T13:08:42;19.90;99.90
24049;DHT22;12250;50.956;4.746;2022-10-31T13:11:11;19.90;99.90
24049;DHT22;12250;50.956;4.746;2022-10-31T13:13:40;19.80;99.90
24049;DHT22;12250;50.956;4.746;2022-10-31T13:16:15;19.90;99.90
24049;DHT22;12250;50.956;4.746;2022-10-31T13:18:57;20.00;99.90
24049;DHT22;12250;50.956;4.746;2022-10-31T13:21:30;20.00;99.90
24049;DHT22;12250;50.956;4.746;2022-10-31T13:23:58;20.00;99.90
24049;DHT22;12250;50.956;4.746;2022-10-31T13:26:41;19.90;99.90
24049;DHT22;12250;50.956;4.746;2022-10-31T13:31:33;19.90;99.90
24049;DHT22;12250;50.956;4.746;2022-10-31T13:34:04;19.90;99.90
24049;DHT22;12250;50.956;4.746;2022-10-31T13:36:42;19.80;99.90
24049;DHT22;12250;50.956;4.746;2022-10-31T13:41:49;20.00;99.90
24049;DHT22;12250;50.956;4.746;2022-10-31T13:44:24;20.00;99.90
24049;DHT22;12250;50.956;4.746;2022-10-31T13:46:54;20.00;99.90
24049;DHT22;12250;50.956;4.746;2022-10-31T13:57:33;19.70;99.90
24049;DHT22;12250;50.956;4.746;2022-10-31T14:02:47;19.60;99.90
24049;DHT22;12250;50.956;4.746;2022-10-31T14:05:26;19.50;99.90
24049;DHT22;12250;50.956;4.746;2022-10-31T14:07:54;19.30;99.90
24049;DHT22;12250;50.956;4.746;2022-10-31T14:12:51;19.20;99.90
24049;DHT22;12250;50.956;4.746;2022-10-31T14:17:49;19.00;99.90
24049;DHT22;12250;50.956;4.746;2022-10-31T14:22:41;19.00;99.90
24049;DHT22;12250;50.956;4.746;2022-10-31T14:25:35;18.90;99.90
24049;DHT22;12250;50.956;4.746;2022-10-31T14:28:49;18.90;99.90
24049;DHT22;12250;50.956;4.746;2022-10-31T14:30:54;18.90;99.90
24049;DHT22;12250;50.956;4.746;2022-10-31T14:33:22;18.90;99.90
24049;DHT22;12250;50.956;4.746;2022-10-31T14:36:10;18.80;99.90
24049;DHT22;12250;50.956;4.746;2022-10-31T14:52:25;18.50;99.90
24049;DHT22;12250;50.956;4.746;2022-10-31T14:54:53;18.50;99.90
24049;DHT22;12250;50.956;4.746;2022-10-31T14:57:31;18.50;99.90
24049;DHT22;12250;50.956;4.746;2022-10-31T15:00:04;18.50;99.90
24049;DHT22;12250;50.956;4.746;2022-10-31T15:05:33;18.40;99.90
24049;DHT22;12250;50.956;4.746;2022-10-31T15:08:00;18.40;99.90
24049;DHT22;12250;50.956;4.746;2022-10-31T15:10:31;18.40;99.90
24049;DHT22;12250;50.956;4.746;2022-10-31T15:15:43;18.40;99.90
24049;DHT22;12250;50.956;4.746;2022-10-31T15:18:17;18.40;99.90
24049;DHT22;12250;50.956;4.746;2022-10-31T15:20:44;18.30;99.90
24049;DHT22;12250;50.956;4.746;2022-10-31T15:23:14;18.20;99.90
24049;DHT22;12250;50.956;4.746;2022-10-31T15:25:41;18.10;99.90
24049;DHT22;12250;50.956;4.746;2022-10-31T15:28:24;18.00;99.90
24049;DHT22;12250;50.956;4.746;2022-10-31T15:30:52;18.00;99.90
24049;DHT22;12250;50.956;4.746;2022-10-31T15:33:26;17.90;99.90
24049;DHT22;12250;50.956;4.746;2022-10-31T15:36:02;17.70;99.90
24049;DHT22;12250;50.956;4.746;2022-10-31T15:38:29;17.60;99.90
24049;DHT22;12250;50.956;4.746;2022-10-31T15:41:04;17.60;99.90
24049;DHT22;12250;50.956;4.746;2022-10-31T15:43:34;17.50;99.90
24049;DHT22;12250;50.956;4.746;2022-10-31T15:46:02;17.40;99.90
24049;DHT22;12250;50.956;4.746;2022-10-31T15:48:28;17.30;99.90
24049;DHT22;12250;50.956;4.746;2022-10-31T15:50:57;17.20;99.90
24049;DHT22;12250;50.956;4.746;2022-10-31T15:53:48;17.10;99.90
24049;DHT22;12250;50.956;4.746;2022-10-31T15:56:24;17.10;99.90
24049;DHT22;12250;50.956;4.746;2022-10-31T15:58:52;17.00;99.90
24049;DHT22;12250;50.956;4.746;2022-10-31T16:04:03;16.70;99.90
24049;DHT22;12250;50.956;4.746;2022-10-31T16:06:33;16.70;99.90
24049;DHT22;12250;50.956;4.746;2022-10-31T16:09:00;16.60;99.90
24049;DHT22;12250;50.956;4.746;2022-10-31T16:11:36;16.60;99.90
24049;DHT22;12250;50.956;4.746;2022-10-31T16:16:40;16.50;99.90
24049;DHT22;12250;50.956;4.746;2022-10-31T16:19:32;16.40;99.90
24049;DHT22;12250;50.956;4.746;2022-10-31T16:22:23;16.30;99.90
24049;DHT22;12250;50.956;4.746;2022-10-31T16:25:02;16.30;99.90
24049;DHT22;12250;50.956;4.746;2022-10-31T16:27:33;16.20;99.90
24049;DHT22;12250;50.956;4.746;2022-10-31T16:30:00;16.10;99.90
24049;DHT22;12250;50.956;4.746;2022-10-31T16:35:25;15.90;99.90
24049;DHT22;12250;50.956;4.746;2022-10-31T16:37:51;15.90;99.90
24049;DHT22;12250;50.956;4.746;2022-10-31T16:40:17;15.90;99.90
24049;DHT22;12250;50.956;4.746;2022-10-31T16:42:44;15.80;99.90
24049;DHT22;12250;50.956;4.746;2022-10-31T16:45:20;15.80;99.90
24049;DHT22;12250;50.956;4.746;2022-10-31T16:47:47;15.70;99.90
24049;DHT22;12250;50.956;4.746;2022-10-31T16:50:16;15.70;99.90
24049;DHT22;12250;50.956;4.746;2022-10-31T16:52:42;15.60;99.90
24049;DHT22;12250;50.956;4.746;2022-10-31T16:55:16;15.60;99.90
24049;DHT22;12250;50.956;4.746;2022-10-31T16:57:52;15.60;99.90
24049;DHT22;12250;50.956;4.746;2022-10-31T17:00:21;15.50;99.90
24049;DHT22;12250;50.956;4.746;2022-10-31T17:02:49;15.40;99.90
24049;DHT22;12250;50.956;4.746;2022-10-31T17:05:17;15.40;99.90
24049;DHT22;12250;50.956;4.746;2022-10-31T17:07:43;15.30;99.90
24049;DHT22;12250;50.956;4.746;2022-10-31T17:10:11;15.30;99.90
24049;DHT22;12250;50.956;4.746;2022-10-31T17:12:37;15.30;99.90
24049;DHT22;12250;50.956;4.746;2022-10-31T17:15:05;15.30;99.90
24049;DHT22;12250;50.956;4.746;2022-10-31T17:17:31;15.30;99.90
24049;DHT22;12250;50.956;4.746;2022-10-31T17:19:57;15.30;99.90
24049;DHT22;12250;50.956;4.746;2022-10-31T17:22:23;15.20;99.90
24049;DHT22;12250;50.956;4.746;2022-10-31T17:24:48;15.20;99.90
24049;DHT22;12250;50.956;4.746;2022-10-31T17:27:14;15.20;99.90
24049;DHT22;12250;50.956;4.746;2022-10-31T17:29:40;15.10;99.90
24049;DHT22;12250;50.956;4.746;2022-10-31T17:32:05;15.10;99.90
24049;DHT22;12250;50.956;4.746;2022-10-31T17:34:31;15.10;99.90
24049;DHT22;12250;50.956;4.746;2022-10-31T17:36:56;15.00;99.90
24049;DHT22;12250;50.956;4.746;2022-10-31T17:39:22;14.90;99.90
24049;DHT22;12250;50.956;4.746;2022-10-31T17:41:51;14.90;99.90
24049;DHT22;12250;50.956;4.746;2022-10-31T17:44:17;14.80;99.90
24049;DHT22;12250;50.956;4.746;2022-10-31T17:46:43;14.80;99.90
24049;DHT22;12250;50.956;4.746;2022-10-31T17:49:12;14.70;99.90
24049;DHT22;12250;50.956;4.746;2022-10-31T17:51:37;14.60;99.90
24049;DHT22;12250;50.956;4.746;2022-10-31T17:54:03;14.50;99.90
24049;DHT22;12250;50.956;4.746;2022-10-31T17:56:31;14.50;99.90
24049;DHT22;12250;50.956;4.746;2022-10-31T17:58:56;14.40;99.90
24049;DHT22;12250;50.956;4.746;2022-10-31T18:01:22;14.30;99.90
24049;DHT22;12250;50.956;4.746;2022-10-31T18:03:48;14.30;99.90
24049;DHT22;12250;50.956;4.746;2022-10-31T18:06:14;14.20;99.90
24049;DHT22;12250;50.956;4.746;2022-10-31T18:08:41;14.20;99.90
24049;DHT22;12250;50.956;4.746;2022-10-31T18:11:13;14.20;99.90
24049;DHT22;12250;50.956;4.746;2022-10-31T18:13:40;14.20;99.90